Terminal Aerodrome Forecast
Issued by NWS Pocatello, ID

Home | Current Version | Previous Version | Text Only | Print | Product List | Glossary On
Versions: 1 2 3 4 5 6 7 8 9 10 11 12 13 14 15 16 17
622
FTUS45 KPIH 281123
TAFIDA
TAF
KIDA 281123Z 2812/2912 20006KT P6SM SCT070 SCT100
     FM281900 22015G25KT P6SM VCTS SCT080CB BKN120
     FM290300 19008KT P6SM SCT120=

USA.gov is the U.S. government's official web portal to all federal, state and local government web resources and services.